createdAt,value
2022-08-09T00:04:03.548Z,101188.00
2022-08-09T00:09:08.257Z,101216.81
2022-08-09T00:14:08.591Z,101217.97
2022-08-09T00:19:10.316Z,101204.50
2022-08-09T00:24:08.105Z,101223.88
2022-08-09T00:29:39.583Z,101194.41
2022-08-09T00:34:33.426Z,101193.53
2022-08-09T00:40:12.713Z,101230.94
2022-08-09T00:44:48.969Z,101131.53
2022-08-09T00:49:54.540Z,101200.91
2022-08-09T00:54:55.362Z,101227.31
2022-08-09T00:59:54.231Z,101174.69
2022-08-09T01:04:58.048Z,101236.03
2022-08-09T01:10:02.688Z,101226.97
2022-08-09T01:15:06.075Z,101190.59
2022-08-09T01:20:27.003Z,101210.41
2022-08-09T01:26:01.766Z,101201.75
2022-08-09T01:31:02.985Z,101226.69
2022-08-09T01:36:07.252Z,101233.03
2022-08-09T01:41:09.547Z,101220.16
2022-08-09T01:46:09.840Z,101234.00
2022-08-09T01:51:22.585Z,101190.78
2022-08-09T01:56:22.151Z,101218.75
2022-08-09T02:01:21.537Z,101130.88
2022-08-09T02:06:58.669Z,101206.81
2022-08-09T02:11:59.979Z,101235.00
2022-08-09T02:17:59.159Z,101238.78
2022-08-09T02:22:35.060Z,101227.00
2022-08-09T02:27:58.139Z,101226.78
2022-08-09T02:32:55.076Z,101229.63
2022-08-09T02:37:57.907Z,101219.41
2022-08-09T02:42:59.909Z,101219.28
2022-08-09T02:48:02.891Z,101222.69
2022-08-09T02:53:17.291Z,101133.38
2022-08-09T02:58:36.945Z,101131.06
2022-08-09T03:04:18.239Z,101184.44
2022-08-09T03:08:57.258Z,101187.88
2022-08-09T03:13:59.619Z,101218.72
2022-08-09T03:19:01.609Z,101174.47
2022-08-09T03:24:04.728Z,101179.53
2022-08-09T03:29:02.539Z,101208.88
2022-08-09T03:34:19.815Z,101215.47
2022-08-09T03:39:20.074Z,101153.59
2022-08-09T03:44:27.869Z,101143.91
2022-08-09T03:49:35.665Z,101181.56
2022-08-09T03:54:44.922Z,101188.44
2022-08-09T03:59:52.827Z,101210.47
2022-08-09T04:04:53.791Z,101227.28
2022-08-09T04:09:53.725Z,101220.34
2022-08-09T04:15:00.350Z,101179.63
2022-08-09T04:20:02.535Z,101233.66
2022-08-09T04:25:00.182Z,101238.06
2022-08-09T04:29:58.684Z,101184.38
2022-08-09T04:35:03.439Z,101249.44
2022-08-09T04:40:02.295Z,101225.50
2022-08-09T04:45:03.412Z,101189.81
2022-08-09T04:50:07.032Z,101142.47
2022-08-09T04:55:17.547Z,101214.91
2022-08-09T05:00:23.378Z,101253.22
2022-08-09T05:05:31.769Z,101235.09
2022-08-09T05:10:38.984Z,101222.78
2022-08-09T05:15:39.307Z,101227.00
2022-08-09T05:20:40.763Z,101217.41
2022-08-09T05:25:45.074Z,101185.91
2022-08-09T05:30:48.714Z,101204.31
2022-08-09T05:35:50.869Z,101192.72
2022-08-09T05:40:50.587Z,101215.09
2022-08-09T05:45:55.857Z,101237.94
2022-08-09T05:51:16.735Z,101257.66
2022-08-09T05:56:37.775Z,101259.00
2022-08-09T06:01:58.996Z,101260.31
2022-08-09T06:06:56.488Z,101259.00
2022-08-09T06:11:57.671Z,101269.47
2022-08-09T06:16:55.490Z,101255.47
2022-08-09T06:21:58.393Z,101249.44
2022-08-09T06:26:59.164Z,101233.72
2022-08-09T06:32:24.620Z,101224.66
2022-08-09T06:37:13.394Z,101256.22
2022-08-09T06:42:11.608Z,101227.72
2022-08-09T06:47:09.019Z,101220.00
2022-08-09T06:52:06.662Z,101252.53
2022-08-09T06:57:08.911Z,101266.91
2022-08-09T07:02:11.496Z,101281.19
2022-08-09T07:07:59.626Z,101253.50
2022-08-09T07:13:05.425Z,101274.38
2022-08-09T07:18:23.388Z,101249.03
2022-08-09T07:23:22.844Z,101264.28
2022-08-09T07:28:28.278Z,101251.25
2022-08-09T07:33:26.524Z,101280.16
2022-08-09T07:38:31.023Z,101271.94
2022-08-09T07:43:41.154Z,101279.25
2022-08-09T07:50:07.670Z,101174.22
2022-08-09T07:55:41.465Z,101260.50
2022-08-09T08:00:58.855Z,101186.44
2022-08-09T08:06:09.580Z,101236.53
2022-08-09T08:12:09.347Z,101254.22
2022-08-09T08:17:07.630Z,101207.78
2022-08-09T08:22:28.507Z,101264.56
2022-08-09T08:27:27.043Z,101201.97
2022-08-09T08:32:52.212Z,101236.13
2022-08-09T08:38:11.416Z,101222.50
2022-08-09T08:43:13.893Z,101222.06
2022-08-09T08:48:31.739Z,101225.03
2022-08-09T08:53:32.326Z,101220.28
2022-08-09T08:58:38.946Z,101225.66
2022-08-09T09:10:02.239Z,101213.75
2022-08-09T09:15:33.735Z,101202.25
2022-08-09T09:20:52.208Z,101135.66
2022-08-09T09:26:16.709Z,101197.63
2022-08-09T09:32:04.140Z,101191.75
2022-08-09T09:36:39.202Z,101202.56
2022-08-09T09:41:49.906Z,101188.91
2022-08-09T09:47:00.062Z,101150.41
2022-08-09T09:58:03.949Z,101157.03
2022-08-09T10:03:09.219Z,101141.16
2022-08-09T10:08:28.056Z,101149.78
2022-08-09T10:13:43.236Z,101130.94
2022-08-09T10:18:54.693Z,101136.56
2022-08-09T10:24:01.143Z,101090.53
2022-08-09T10:29:36.099Z,101134.13
2022-08-09T10:34:33.528Z,101130.56
2022-08-09T10:39:40.788Z,101125.53
2022-08-09T10:44:55.062Z,101118.19
2022-08-09T10:50:14.825Z,101078.53
2022-08-09T10:55:23.569Z,101104.38
2022-08-09T11:00:41.804Z,101073.34
2022-08-09T11:06:19.930Z,101113.00
2022-08-09T11:11:18.354Z,101029.41
2022-08-09T11:16:37.310Z,101088.59
2022-08-09T11:21:57.451Z,101082.59
2022-08-09T11:28:05.486Z,101011.97
2022-08-09T11:32:49.861Z,101048.59
2022-08-09T11:37:50.343Z,101065.56
2022-08-09T11:42:49.051Z,101004.16
2022-08-09T11:47:47.702Z,101025.34
2022-08-09T11:53:59.760Z,101058.84
2022-08-09T11:58:48.172Z,101005.66
2022-08-09T12:03:55.198Z,101007.66
2022-08-09T12:09:21.133Z,101000.53
2022-08-09T12:14:40.527Z,101030.47
2022-08-09T12:20:27.902Z,100946.56
2022-08-09T12:25:49.485Z,101018.34
2022-08-09T12:31:57.955Z,101005.81
2022-08-09T12:36:59.097Z,100935.97
2022-08-09T12:42:25.803Z,100893.94
2022-08-09T12:47:25.268Z,100904.72
2022-08-09T12:52:22.426Z,100937.44
2022-08-09T12:58:11.673Z,100929.84
2022-08-09T13:03:57.054Z,100925.66
2022-08-09T13:08:58.661Z,100963.78
2022-08-09T13:14:37.029Z,100935.59
2022-08-09T13:20:10.277Z,100948.47
2022-08-09T13:24:54.354Z,100877.66
2022-08-09T13:30:03.544Z,100959.38
2022-08-09T13:35:01.603Z,100884.97
2022-08-09T13:41:51.049Z,100941.06
2022-08-09T13:45:17.984Z,100918.84
2022-08-09T13:50:29.936Z,100951.78
2022-08-09T13:55:29.177Z,100944.88
2022-08-09T14:00:29.472Z,100919.94
2022-08-09T14:05:59.912Z,100928.13
2022-08-09T14:10:50.614Z,100934.94
2022-08-09T14:16:09.756Z,100887.84
2022-08-09T14:21:08.769Z,100935.31
2022-08-09T14:26:06.677Z,100897.34
2022-08-09T14:31:07.973Z,100899.50
2022-08-09T14:36:20.886Z,100894.50
2022-08-09T14:41:24.072Z,100927.09
2022-08-09T14:46:55.485Z,100866.84
2022-08-09T14:51:59.013Z,100878.84
2022-08-09T14:56:58.872Z,100905.53
2022-08-09T15:01:57.210Z,100931.22
2022-08-09T15:06:55.637Z,100949.16
2022-08-09T15:11:52.664Z,100894.41
2022-08-09T15:16:50.748Z,100876.19
2022-08-09T15:21:54.683Z,100975.41
2022-08-09T15:26:59.809Z,100977.06
2022-08-09T15:32:00.231Z,100941.00
2022-08-09T15:37:10.095Z,100934.28
2022-08-09T15:42:09.055Z,100863.59
2022-08-09T15:47:07.550Z,100967.66
2022-08-09T15:52:15.312Z,100951.84
2022-08-09T16:02:38.657Z,100959.56
2022-08-09T16:07:49.489Z,100951.75
2022-08-09T16:12:53.502Z,100945.78
2022-08-09T16:17:52.904Z,100850.50
2022-08-09T16:22:53.421Z,100926.06
2022-08-09T16:28:44.762Z,100954.00
2022-08-09T16:33:52.769Z,100961.69
2022-08-09T16:38:53.368Z,100920.34
2022-08-09T16:43:52.181Z,100970.69
2022-08-09T16:49:05.933Z,100938.25
2022-08-09T16:55:04.129Z,100867.97
2022-08-09T17:00:09.691Z,100859.13
2022-08-09T17:06:08.007Z,100984.56
2022-08-09T17:11:24.541Z,100935.06
2022-08-09T17:16:45.004Z,100921.00
2022-08-09T17:22:07.833Z,100949.78
2022-08-09T17:27:18.418Z,100973.19
2022-08-09T17:32:20.257Z,100887.34
2022-08-09T17:38:32.910Z,100963.50
2022-08-09T17:44:38.840Z,100977.44
2022-08-09T17:49:50.803Z,101022.94
2022-08-09T17:55:05.662Z,100934.53
2022-08-09T18:00:10.126Z,100980.72
2022-08-09T18:05:22.251Z,101039.84
2022-08-09T18:10:31.645Z,101004.88
2022-08-09T18:16:05.421Z,100974.06
2022-08-09T18:21:23.565Z,101025.09
2022-08-09T18:26:37.898Z,100944.97
2022-08-09T18:31:55.951Z,101028.38
2022-08-09T18:37:10.515Z,100961.69
2022-08-09T18:42:31.055Z,101038.88
2022-08-09T18:47:50.099Z,101056.69
2022-08-09T18:53:07.306Z,101052.31
2022-08-09T18:58:12.804Z,101003.41
2022-08-09T19:03:29.753Z,101001.50
2022-08-09T19:10:12.816Z,101044.06
2022-08-09T19:14:49.166Z,101066.44
2022-08-09T19:20:00.778Z,101021.34
2022-08-09T19:30:28.245Z,101038.53
2022-08-09T19:35:56.714Z,101024.56
2022-08-09T19:41:04.598Z,101064.91
2022-08-09T19:46:14.393Z,101044.59
2022-08-09T19:51:16.529Z,101043.94
2022-08-09T19:56:18.520Z,101102.84
2022-08-09T20:01:28.117Z,101116.28
2022-08-09T20:06:45.523Z,101148.25
2022-08-09T20:11:55.588Z,101149.38
2022-08-09T20:17:00.015Z,101113.16
2022-08-09T20:22:10.207Z,101104.84
2022-08-09T20:27:17.090Z,101150.16
2022-08-09T20:32:33.859Z,101141.81
2022-08-09T20:38:20.710Z,101123.91
2022-08-09T20:43:18.493Z,101088.38
2022-08-09T20:48:21.920Z,101173.75
2022-08-09T20:53:36.662Z,101124.25
2022-08-09T20:58:43.532Z,101173.66
2022-08-09T21:05:48.942Z,101184.06
2022-08-09T21:08:58.836Z,101186.63
2022-08-09T21:14:00.557Z,101193.34
2022-08-09T21:19:08.287Z,101101.19
2022-08-09T21:24:28.538Z,101094.03
2022-08-09T21:29:30.477Z,101158.56
2022-08-09T21:34:54.807Z,101124.66
2022-08-09T21:39:54.362Z,101190.84
2022-08-09T21:44:56.683Z,101160.75
2022-08-09T21:49:54.418Z,101180.13
2022-08-09T21:55:10.313Z,101159.31
2022-08-09T22:00:26.005Z,101204.63
2022-08-09T22:05:37.106Z,101144.06
2022-08-09T22:10:36.027Z,101202.81
2022-08-09T22:15:55.787Z,101182.63
2022-08-09T22:20:55.897Z,101221.69
2022-08-09T22:26:05.462Z,101167.13
2022-08-09T22:31:06.622Z,101196.09
2022-08-09T22:36:04.851Z,101201.63
2022-08-09T22:48:14.692Z,101155.13
2022-08-09T22:51:38.275Z,101119.34
2022-08-09T22:56:36.802Z,101180.81
2022-08-09T23:01:35.116Z,101122.31
2022-08-09T23:06:47.031Z,101173.72
2022-08-09T23:11:48.760Z,101177.09
2022-08-09T23:16:46.845Z,101069.84
2022-08-09T23:22:03.740Z,101097.81
2022-08-09T23:27:01.052Z,101143.88
2022-08-09T23:31:59.148Z,101148.22
2022-08-09T23:36:56.577Z,101172.75
2022-08-09T23:41:55.122Z,101077.13
2022-08-09T23:46:52.747Z,101173.50
2022-08-09T23:51:59.315Z,101172.78
2022-08-09T23:56:58.090Z,101147.06
